createdAt,value
2016-11-01T00:00:21.704Z,741.88
2016-11-01T00:01:21.675Z,741.89
2016-11-01T00:02:21.673Z,741.86
2016-11-01T00:03:21.648Z,741.83
2016-11-01T00:04:21.646Z,741.82
2016-11-01T00:05:21.621Z,741.85
2016-11-01T00:06:21.618Z,741.81
2016-11-01T00:07:21.604Z,741.84
2016-11-01T00:08:21.589Z,741.81
2016-11-01T00:09:21.576Z,741.86
2016-11-01T00:10:21.562Z,741.84
2016-11-01T00:11:21.537Z,741.84
2016-11-01T00:12:21.534Z,741.84
2016-11-01T00:13:21.508Z,741.83
2016-11-01T00:14:21.495Z,741.77
2016-11-01T00:15:21.482Z,741.79
2016-11-01T00:16:21.467Z,741.88
2016-11-01T00:17:21.464Z,741.84
2016-11-01T00:18:21.440Z,741.81
2016-11-01T00:19:21.436Z,741.78
2016-11-01T00:20:21.422Z,741.76
2016-11-01T00:21:21.408Z,741.77
2016-11-01T00:22:21.395Z,741.77
2016-11-01T00:23:21.369Z,741.79
2016-11-01T00:24:21.366Z,741.79
2016-11-01T00:25:21.352Z,741.85
2016-11-01T00:26:21.328Z,741.76
2016-11-01T00:27:21.314Z,741.78
2016-11-01T00:28:21.311Z,741.81
2016-11-01T00:29:21.286Z,741.86
2016-11-01T00:30:21.281Z,741.84
2016-11-01T00:31:21.268Z,741.79
2016-11-01T00:32:21.254Z,741.77
2016-11-01T00:33:21.240Z,741.76
2016-11-01T00:34:21.225Z,741.74
2016-11-01T00:35:21.199Z,741.76
2016-11-01T00:36:21.399Z,741.74
2016-11-01T00:37:21.180Z,741.73
2016-11-01T00:38:21.369Z,741.72
2016-11-01T00:39:21.153Z,741.75
2016-11-01T00:40:21.139Z,741.77
2016-11-01T00:41:21.113Z,741.72
2016-11-01T00:42:21.100Z,741.73
2016-11-01T00:43:21.095Z,741.67
2016-11-01T00:44:21.070Z,741.7
2016-11-01T00:45:21.065Z,741.71
2016-11-01T00:46:21.052Z,741.7
2016-11-01T00:47:21.038Z,741.69
2016-11-01T00:48:21.023Z,741.61
2016-11-01T00:49:21.007Z,741.67
2016-11-01T00:50:20.994Z,741.66
2016-11-01T00:51:20.969Z,741.66
2016-11-01T00:52:20.954Z,741.7
2016-11-01T00:53:20.940Z,741.66
2016-11-01T00:54:20.936Z,741.66
2016-11-01T00:55:20.913Z,741.67
2016-11-01T00:56:20.907Z,741.66
2016-11-01T00:57:20.882Z,741.65
2016-11-01T00:58:20.882Z,741.68
2016-11-01T00:59:20.852Z,741.66
2016-11-01T01:00:20.850Z,741.67
2016-11-01T01:01:20.836Z,741.63
2016-11-01T01:02:20.811Z,741.68
2016-11-01T01:03:20.806Z,741.66
2016-11-01T01:04:20.792Z,741.64
2016-11-01T01:05:20.778Z,741.64
2016-11-01T01:06:20.753Z,741.6
2016-11-01T01:07:20.739Z,741.65
2016-11-01T01:08:20.724Z,741.62
2016-11-01T01:09:20.710Z,741.6
2016-11-01T01:10:20.705Z,741.66
2016-11-01T01:11:20.680Z,741.66
2016-11-01T01:12:20.677Z,741.64
2016-11-01T01:13:20.663Z,741.6
2016-11-01T01:14:20.637Z,741.61
2016-11-01T01:15:20.623Z,741.6
2016-11-01T01:16:20.609Z,741.64
2016-11-01T01:17:20.595Z,741.62
2016-11-01T01:18:20.579Z,741.6
2016-11-01T01:19:20.565Z,741.6
2016-11-01T01:20:20.550Z,741.61
2016-11-01T01:21:20.546Z,741.59
2016-11-01T01:22:20.532Z,741.57
2016-11-01T01:23:20.507Z,741.6
2016-11-01T01:24:20.504Z,741.54
2016-11-01T01:25:20.477Z,741.55
2016-11-01T01:26:20.462Z,741.55
2016-11-01T01:27:20.460Z,741.47
2016-11-01T01:28:20.445Z,741.52
2016-11-01T01:29:20.418Z,741.59
2016-11-01T01:30:20.416Z,741.51
2016-11-01T01:31:20.402Z,741.48
2016-11-01T01:32:20.382Z,741.52
2016-11-01T01:33:20.361Z,741.48
2016-11-01T01:34:20.358Z,741.52
2016-11-01T01:35:20.343Z,741.51
2016-11-01T01:36:20.317Z,741.46
2016-11-01T01:37:20.303Z,741.47
2016-11-01T01:38:20.289Z,741.49
2016-11-01T01:39:20.274Z,741.42
2016-11-01T01:40:20.259Z,741.5
2016-11-01T01:41:20.245Z,741.46
2016-11-01T01:42:20.230Z,741.39
2016-11-01T01:43:20.224Z,741.44
2016-11-01T01:44:20.212Z,741.47
2016-11-01T01:45:20.197Z,741.41
2016-11-01T01:46:20.172Z,741.43
2016-11-01T01:47:20.157Z,741.4
2016-11-01T01:48:20.143Z,741.38
2016-11-01T01:49:20.138Z,741.33
2016-11-01T01:50:20.123Z,741.45
2016-11-01T01:51:20.097Z,741.36
2016-11-01T01:52:20.083Z,741.39
2016-11-01T01:53:20.080Z,741.32
2016-11-01T01:54:20.053Z,741.3
2016-11-01T01:55:20.039Z,741.3
2016-11-01T01:56:20.035Z,741.35
2016-11-01T01:57:20.021Z,741.27
2016-11-01T01:58:20.006Z,741.3
2016-11-01T01:59:19.991Z,741.24
2016-11-01T02:00:19.977Z,741.29
2016-11-01T02:01:19.952Z,741.25
2016-11-01T02:02:19.948Z,741.24
2016-11-01T02:03:19.934Z,741.31
2016-11-01T02:04:19.908Z,741.24
2016-11-01T02:05:19.894Z,741.23
2016-11-01T02:06:19.889Z,741.26
2016-11-01T02:07:19.876Z,741.27
2016-11-01T02:08:19.860Z,741.2
2016-11-01T02:09:19.834Z,741.18
2016-11-01T02:10:19.820Z,741.23
2016-11-01T02:11:19.807Z,741.23
2016-11-01T02:12:19.791Z,741.18
2016-11-01T02:13:19.788Z,741.18
2016-11-01T02:14:19.774Z,741.22
2016-11-01T02:15:19.759Z,741.21
2016-11-01T02:16:19.744Z,741.23
2016-11-01T02:17:19.729Z,741.23
2016-11-01T02:18:19.715Z,741.19
2016-11-01T02:19:19.691Z,741.16
2016-11-01T02:20:19.686Z,741.2
2016-11-01T02:21:19.672Z,741.15
2016-11-01T02:22:19.647Z,741.14
2016-11-01T02:23:19.631Z,741.12
2016-11-01T02:24:19.617Z,741.15
2016-11-01T02:25:19.602Z,741.12
2016-11-01T02:26:19.589Z,741.14
2016-11-01T02:27:19.572Z,741.11
2016-11-01T02:28:19.559Z,741.08
2016-11-01T02:29:19.554Z,741.15
2016-11-01T02:30:19.529Z,741.08
2016-11-01T02:31:19.525Z,741.11
2016-11-01T02:32:19.500Z,741.08
2016-11-01T02:33:19.497Z,741.1
2016-11-01T02:34:19.481Z,741.1
2016-11-01T02:35:19.467Z,741.06
2016-11-01T02:36:19.452Z,741.08
2016-11-01T02:37:19.426Z,741.06
2016-11-01T02:38:19.412Z,741.05
2016-11-01T02:39:19.396Z,741.08
2016-11-01T02:40:19.393Z,741.06
2016-11-01T02:41:19.379Z,741.05
2016-11-01T02:42:19.364Z,741.11
2016-11-01T02:43:19.349Z,741.04
2016-11-01T02:44:19.335Z,741.1
2016-11-01T02:45:19.309Z,741.06
2016-11-01T02:46:19.305Z,741
2016-11-01T02:47:19.291Z,741.1
2016-11-01T02:48:19.265Z,741.07
2016-11-01T02:49:19.249Z,741.03
2016-11-01T02:50:19.246Z,741.09
2016-11-01T02:51:19.220Z,741.02
2016-11-01T02:52:19.217Z,741.11
2016-11-01T02:53:19.202Z,741.09
2016-11-01T02:54:19.189Z,741.05
2016-11-01T02:55:19.162Z,741.08
2016-11-01T02:56:19.158Z,741.1
2016-11-01T02:57:19.132Z,741.09
2016-11-01T02:58:19.117Z,740.99
2016-11-01T02:59:19.102Z,741.15
2016-11-01T03:00:19.087Z,741.1
2016-11-01T03:01:19.073Z,741.1
2016-11-01T03:02:19.059Z,741.05
2016-11-01T03:03:19.044Z,741.1
2016-11-01T03:04:19.029Z,741.03
2016-11-01T03:05:19.026Z,741.03
2016-11-01T03:06:19.000Z,740.95
2016-11-01T03:07:18.996Z,740.95
2016-11-01T03:08:18.970Z,741.03
2016-11-01T03:09:18.956Z,741.08
2016-11-01T03:10:18.953Z,741.02
2016-11-01T03:11:18.926Z,741.09
2016-11-01T03:12:18.923Z,740.73
2016-11-01T03:13:18.909Z,740.99
2016-11-01T03:14:18.895Z,741.03
2016-11-01T03:15:18.879Z,740.85
2016-11-01T03:16:18.853Z,740.97
2016-11-01T03:17:18.849Z,740.96
2016-11-01T03:18:18.824Z,740.95
2016-11-01T03:19:18.820Z,740.95
2016-11-01T03:20:18.795Z,740.93
2016-11-01T03:21:18.780Z,740.98
2016-11-01T03:22:18.765Z,740.96
2016-11-01T03:23:18.749Z,740.95
2016-11-01T03:24:18.750Z,740.92
2016-11-01T03:25:18.721Z,740.89
2016-11-01T03:26:18.717Z,740.94
2016-11-01T03:27:18.692Z,740.97
2016-11-01T03:28:18.680Z,740.87
2016-11-01T03:29:18.673Z,740.82
2016-11-01T03:30:18.658Z,740.89
2016-11-01T03:31:18.644Z,740.87
2016-11-01T03:32:18.618Z,740.88
2016-11-01T03:33:18.604Z,741.01
2016-11-01T03:34:18.590Z,740.89
2016-11-01T03:35:18.584Z,740.88
2016-11-01T03:36:18.571Z,740.93
2016-11-01T03:37:18.545Z,740.89
2016-11-01T03:38:18.531Z,740.92
2016-11-01T03:39:18.517Z,740.84
2016-11-01T03:40:18.501Z,740.9
2016-11-01T03:41:18.488Z,740.85
2016-11-01T03:42:18.472Z,740.87
2016-11-01T03:43:18.471Z,740.78
2016-11-01T03:44:18.442Z,740.77
2016-11-01T03:45:18.439Z,740.94
2016-11-01T03:46:18.424Z,740.79
2016-11-01T03:47:18.410Z,740.79
2016-11-01T03:48:18.396Z,740.88
2016-11-01T03:49:18.370Z,740.78
2016-11-01T03:50:18.367Z,740.88
2016-11-01T03:51:18.352Z,740.9
2016-11-01T03:52:18.337Z,740.81
2016-11-01T03:53:18.323Z,740.83
2016-11-01T03:54:18.308Z,740.83
2016-11-01T03:55:18.293Z,740.86
2016-11-01T03:56:18.279Z,740.79
2016-11-01T03:57:18.265Z,740.83
2016-11-01T03:58:18.250Z,740.77
2016-11-01T03:59:18.224Z,740.84
2016-11-01T04:00:18.210Z,740.82
2016-11-01T04:01:18.207Z,740.81
2016-11-01T04:02:18.181Z,740.76
2016-11-01T04:03:18.178Z,740.68
2016-11-01T04:04:18.153Z,740.82
2016-11-01T04:05:18.149Z,740.66
2016-11-01T04:06:18.123Z,740.8
2016-11-01T04:07:18.109Z,740.76
2016-11-01T04:08:18.105Z,740.8
2016-11-01T04:09:18.090Z,740.77
2016-11-01T04:10:18.076Z,740.78
2016-11-01T04:11:18.061Z,740.75
2016-11-01T04:12:18.047Z,740.77
2016-11-01T04:13:18.032Z,740.73
2016-11-01T04:14:18.007Z,740.82
2016-11-01T04:15:17.992Z,740.77
2016-11-01T04:16:17.978Z,740.78
2016-11-01T04:17:17.964Z,740.74
2016-11-01T04:18:17.949Z,740.78
2016-11-01T04:19:17.935Z,740.77
2016-11-01T04:20:17.930Z,740.82
2016-11-01T04:21:17.905Z,740.75
2016-11-01T04:22:17.892Z,740.74
2016-11-01T04:23:17.889Z,740.68
2016-11-01T04:24:17.873Z,740.75
2016-11-01T04:25:17.847Z,740.67
2016-11-01T04:26:17.845Z,740.71
2016-11-01T04:27:17.831Z,740.79
2016-11-01T04:28:17.815Z,740.68
2016-11-01T04:29:17.802Z,740.72
2016-11-01T04:30:17.787Z,740.73
2016-11-01T04:31:17.762Z,740.71
2016-11-01T04:32:17.758Z,740.66
2016-11-01T04:33:17.732Z,740.65
2016-11-01T04:34:17.729Z,740.62
2016-11-01T04:35:17.705Z,740.59
2016-11-01T04:36:17.701Z,740.62
2016-11-01T04:37:17.675Z,740.62
2016-11-01T04:38:17.661Z,740.6
2016-11-01T04:39:17.658Z,740.6
2016-11-01T04:40:17.632Z,740.63
2016-11-01T04:41:17.619Z,740.62
2016-11-01T04:42:17.603Z,740.61
2016-11-01T04:43:17.589Z,740.58
2016-11-01T04:44:17.575Z,740.61
2016-11-01T04:45:17.573Z,740.59
2016-11-01T04:46:17.558Z,740.54
2016-11-01T04:47:17.544Z,740.64
2016-11-01T04:48:17.530Z,740.59
2016-11-01T04:49:17.506Z,740.6
2016-11-01T04:50:17.491Z,740.61
2016-11-01T04:51:17.487Z,740.6
2016-11-01T04:52:17.463Z,740.62
2016-11-01T04:53:17.458Z,740.58
2016-11-01T04:54:17.434Z,740.62
2016-11-01T04:55:17.430Z,740.43
2016-11-01T04:56:17.405Z,740.62
2016-11-01T04:57:17.402Z,740.61
2016-11-01T04:58:17.376Z,740.5
2016-11-01T04:59:17.363Z,740.56
2016-11-01T05:00:17.348Z,740.56
2016-11-01T05:01:17.333Z,740.62
2016-11-01T05:02:17.331Z,740.61
2016-11-01T05:03:17.317Z,740.35
2016-11-01T05:04:17.296Z,740.57
2016-11-01T05:05:17.301Z,740.58
2016-11-01T05:06:17.263Z,740.49
2016-11-01T05:07:17.260Z,740.48
2016-11-01T05:08:17.234Z,740.53
2016-11-01T05:09:17.231Z,740.61
2016-11-01T05:10:17.207Z,740.55
2016-11-01T05:11:17.204Z,740.61
2016-11-01T05:12:17.190Z,740.59
2016-11-01T05:13:17.176Z,740.58
2016-11-01T05:14:17.150Z,740.58
2016-11-01T05:15:17.147Z,740.64
2016-11-01T05:16:17.121Z,740.62
2016-11-01T05:17:17.108Z,740.64
2016-11-01T05:18:17.095Z,740.66
2016-11-01T05:19:17.078Z,740.65
2016-11-01T05:20:17.075Z,740.55
2016-11-01T05:21:17.061Z,740.56
2016-11-01T05:22:17.045Z,740.67
2016-11-01T05:23:17.020Z,740.6
2016-11-01T05:24:17.006Z,740.64
2016-11-01T05:25:17.003Z,740.53
2016-11-01T05:26:16.977Z,740.63
2016-11-01T05:27:16.963Z,740.56
2016-11-01T05:28:16.960Z,740.65
2016-11-01T05:29:16.946Z,740.64
2016-11-01T05:30:16.920Z,740.6
2016-11-01T05:31:16.904Z,740.51
2016-11-01T05:32:16.891Z,740.6
2016-11-01T05:33:16.876Z,740.63
2016-11-01T05:34:16.871Z,740.56
2016-11-01T05:35:16.857Z,740.57
2016-11-01T05:36:16.841Z,740.54
2016-11-01T05:37:16.827Z,740.54
2016-11-01T05:38:16.801Z,740.62
2016-11-01T05:39:16.786Z,740.64
2016-11-01T05:40:16.783Z,740.52
2016-11-01T05:41:16.766Z,740.62
2016-11-01T05:42:16.742Z,740.5
2016-11-01T05:43:16.727Z,740.55
2016-11-01T05:44:16.722Z,740.56
2016-11-01T05:45:16.696Z,740.6
2016-11-01T05:46:16.693Z,740.63
2016-11-01T05:47:16.667Z,740.56
2016-11-01T05:48:16.651Z,740.53
2016-11-01T05:49:16.637Z,740.51
2016-11-01T05:50:16.633Z,740.46
2016-11-01T05:51:16.618Z,740.58
2016-11-01T05:52:16.602Z,740.47
2016-11-01T05:53:16.577Z,740.55
2016-11-01T05:54:16.572Z,740.55
2016-11-01T05:55:16.556Z,740.58
2016-11-01T05:56:16.531Z,740.49
2016-11-01T05:57:16.517Z,740.55
2016-11-01T05:58:16.501Z,740.43
2016-11-01T05:59:16.497Z,740.51
2016-11-01T06:00:16.482Z,740.52
2016-11-01T06:01:16.457Z,740.5
2016-11-01T06:02:16.453Z,740.52
2016-11-01T06:03:16.427Z,740.5
2016-11-01T06:04:16.420Z,740.63
2016-11-01T06:05:16.406Z,740.59
2016-11-01T06:06:16.380Z,740.5
2016-11-01T06:07:16.376Z,740.6
2016-11-01T06:08:16.360Z,740.54
2016-11-01T06:09:16.346Z,740.5
2016-11-01T06:10:16.320Z,740.55
2016-11-01T06:11:16.304Z,740.56
2016-11-01T06:12:16.292Z,740.55
2016-11-01T06:13:16.286Z,740.56
2016-11-01T06:14:16.269Z,740.58
2016-11-01T06:15:16.244Z,740.53
2016-11-01T06:16:16.228Z,740.56
2016-11-01T06:17:16.213Z,740.54
2016-11-01T06:18:16.209Z,740.58
2016-11-01T06:19:16.182Z,740.52
2016-11-01T06:20:16.179Z,740.55
2016-11-01T06:21:16.163Z,740.61
2016-11-01T06:22:16.148Z,740.53
2016-11-01T06:23:16.122Z,740.58
2016-11-01T06:24:16.118Z,740.59
2016-11-01T06:25:16.102Z,740.54
2016-11-01T06:26:16.077Z,740.55
2016-11-01T06:27:16.061Z,740.52
2016-11-01T06:28:16.057Z,740.63
2016-11-01T06:29:16.042Z,740.48
2016-11-01T06:30:16.016Z,740.53
2016-11-01T06:31:16.002Z,740.68
2016-11-01T06:32:15.986Z,740.55
2016-11-01T06:33:15.972Z,740.53
2016-11-01T06:34:15.958Z,740.54
2016-11-01T06:35:15.942Z,740.54
2016-11-01T06:36:15.927Z,740.55
2016-11-01T06:37:15.923Z,740.58
2016-11-01T06:38:15.908Z,740.5
2016-11-01T06:39:15.893Z,740.65
2016-11-01T06:40:15.879Z,740.53
2016-11-01T06:41:15.853Z,740.53
2016-11-01T06:42:15.838Z,740.52
2016-11-01T06:43:15.834Z,740.55
2016-11-01T06:44:15.836Z,740.66
2016-11-01T06:45:15.805Z,740.51
2016-11-01T06:46:15.780Z,740.62
2016-11-01T06:47:15.776Z,740.59
2016-11-01T06:48:15.761Z,740.51
2016-11-01T06:49:15.747Z,740.57
2016-11-01T06:50:15.720Z,740.58
2016-11-01T06:51:15.707Z,740.58
2016-11-01T06:52:15.691Z,740.59
2016-11-01T06:53:15.676Z,740.63
2016-11-01T06:54:15.661Z,740.49
2016-11-01T06:55:15.657Z,740.63
2016-11-01T06:56:15.643Z,740.49
2016-11-01T06:57:15.617Z,740.56
2016-11-01T06:58:15.602Z,740.45
2016-11-01T06:59:15.599Z,740.61
2016-11-01T07:00:15.573Z,740.65
2016-11-01T07:01:15.557Z,740.6
2016-11-01T07:02:15.555Z,740.56
2016-11-01T07:03:15.540Z,740.61
2016-11-01T07:04:15.525Z,740.55
2016-11-01T07:05:15.499Z,740.63
2016-11-01T07:06:15.495Z,740.54
2016-11-01T07:07:15.480Z,740.62
2016-11-01T07:08:15.465Z,740.62
2016-11-01T07:09:15.452Z,740.58
2016-11-01T07:10:15.426Z,740.48
2016-11-01T07:11:15.423Z,740.56
2016-11-01T07:12:15.398Z,740.6
2016-11-01T07:13:15.384Z,740.58
2016-11-01T07:14:15.379Z,740.6
2016-11-01T07:15:15.364Z,740.53
2016-11-01T07:16:15.351Z,740.61
2016-11-01T07:17:15.336Z,740.56
2016-11-01T07:18:15.312Z,740.64
2016-11-01T07:19:15.297Z,740.54
2016-11-01T07:20:15.282Z,740.68
2016-11-01T07:21:15.279Z,740.6
2016-11-01T07:22:15.264Z,740.61
2016-11-01T07:23:15.250Z,740.66
2016-11-01T07:24:15.235Z,740.62
2016-11-01T07:25:15.221Z,740.65
2016-11-01T07:26:15.208Z,740.58
2016-11-01T07:27:15.182Z,740.59
2016-11-01T07:28:15.180Z,740.63
2016-11-01T07:29:15.155Z,740.62
2016-11-01T07:30:15.140Z,740.64
2016-11-01T07:31:15.137Z,740.59
2016-11-01T07:32:15.123Z,740.54
2016-11-01T07:33:15.099Z,740.6
2016-11-01T07:34:15.094Z,740.61
2016-11-01T07:35:15.070Z,740.53
2016-11-01T07:36:15.057Z,740.62
2016-11-01T07:37:15.053Z,740.62
2016-11-01T07:38:15.027Z,740.61
2016-11-01T07:39:15.014Z,740.59
2016-11-01T07:40:15.011Z,740.49
2016-11-01T07:41:14.996Z,740.57
2016-11-01T07:42:14.971Z,740.5
2016-11-01T07:43:14.968Z,740.55
2016-11-01T07:44:14.955Z,740.53
2016-11-01T07:45:14.928Z,740.51
2016-11-01T07:46:14.926Z,740.59
2016-11-01T07:47:14.911Z,740.52
2016-11-01T07:48:14.898Z,740.63
2016-11-01T07:49:14.884Z,740.67
2016-11-01T07:50:14.860Z,740.6
2016-11-01T07:51:14.845Z,740.62
2016-11-01T07:52:14.831Z,740.62
2016-11-01T07:53:14.819Z,740.57
2016-11-01T07:54:14.815Z,740.58
2016-11-01T07:55:14.800Z,740.62
2016-11-01T07:56:14.787Z,740.56
2016-11-01T07:57:14.774Z,740.56
2016-11-01T07:58:14.749Z,740.62
2016-11-01T07:59:14.747Z,740.57
2016-11-01T08:00:14.721Z,740.75
2016-11-01T08:01:14.708Z,740.69
2016-11-01T08:02:14.696Z,740.7
2016-11-01T08:03:14.692Z,740.57
2016-11-01T08:04:14.667Z,740.66
2016-11-01T08:05:14.665Z,740.64
2016-11-01T08:06:14.641Z,740.67
2016-11-01T08:07:14.638Z,740.76
2016-11-01T08:08:14.613Z,740.65
2016-11-01T08:09:14.600Z,740.63
2016-11-01T08:10:14.598Z,740.62
2016-11-01T08:11:14.573Z,740.58
2016-11-01T08:12:14.570Z,740.68
2016-11-01T08:13:14.558Z,740.67
2016-11-01T08:14:14.543Z,740.61
2016-11-01T08:15:14.531Z,740.68
2016-11-01T08:16:14.507Z,740.68
2016-11-01T08:17:14.505Z,740.68
2016-11-01T08:18:14.480Z,740.76
2016-11-01T08:19:14.468Z,740.64
2016-11-01T08:20:14.455Z,740.67
2016-11-01T08:21:14.453Z,740.71
2016-11-01T08:22:14.440Z,740.69
2016-11-01T08:23:14.417Z,740.77
2016-11-01T08:24:14.414Z,740.66
2016-11-01T08:25:14.388Z,740.68
2016-11-01T08:26:14.375Z,740.71
2016-11-01T08:27:14.373Z,740.65
2016-11-01T08:28:14.350Z,740.76
2016-11-01T08:29:14.347Z,740.75
2016-11-01T08:30:14.325Z,740.74
2016-11-01T08:31:14.311Z,740.7
2016-11-01T08:32:14.299Z,740.64
2016-11-01T08:33:14.286Z,740.75
2016-11-01T08:34:14.274Z,740.72
2016-11-01T08:35:14.261Z,740.74
2016-11-01T08:36:14.248Z,740.74
2016-11-01T08:37:14.247Z,740.72
2016-11-01T08:38:14.235Z,740.77
2016-11-01T08:39:14.212Z,740.7
2016-11-01T08:40:14.199Z,740.75
2016-11-01T08:41:14.203Z,740.82
2016-11-01T08:42:14.185Z,740.71
2016-11-01T08:43:14.162Z,740.71
2016-11-01T08:44:14.349Z,740.79
2016-11-01T08:45:14.148Z,740.69
2016-11-01T08:46:14.125Z,740.71
2016-11-01T08:47:14.112Z,740.82
2016-11-01T08:48:14.098Z,740.68
2016-11-01T08:49:14.086Z,740.61
2016-11-01T08:50:14.074Z,740.65
2016-11-01T08:51:14.061Z,740.67
2016-11-01T08:52:14.047Z,740.77
2016-11-01T08:53:14.046Z,740.67
2016-11-01T08:54:14.032Z,740.74
2016-11-01T08:55:14.020Z,740.75
2016-11-01T08:56:13.995Z,740.76
2016-11-01T08:57:13.983Z,740.8
2016-11-01T08:58:13.981Z,740.74
2016-11-01T08:59:13.971Z,740.8
2016-11-01T09:00:13.955Z,740.78
2016-11-01T09:01:13.943Z,740.75
2016-11-01T09:02:13.918Z,740.74
2016-11-01T09:03:13.906Z,740.75
2016-11-01T09:04:13.894Z,740.77
2016-11-01T09:05:13.893Z,740.7
2016-11-01T09:06:13.869Z,740.72
2016-11-01T09:07:13.856Z,740.69
2016-11-01T09:08:13.843Z,740.69
2016-11-01T09:09:13.829Z,740.67
2016-11-01T09:10:13.817Z,740.75
2016-11-01T09:11:13.804Z,740.67
2016-11-01T09:12:13.803Z,740.72
2016-11-01T09:13:13.779Z,740.68
2016-11-01T09:14:13.765Z,740.75
2016-11-01T09:15:13.764Z,740.74
2016-11-01T09:16:13.751Z,740.72
2016-11-01T09:17:13.727Z,740.73
2016-11-01T09:18:13.715Z,740.76
2016-11-01T09:19:13.714Z,740.74
2016-11-01T09:20:13.701Z,740.7
2016-11-01T09:21:13.689Z,740.71
2016-11-01T09:22:13.666Z,740.74
2016-11-01T09:23:13.656Z,740.56
2016-11-01T09:24:13.642Z,740.68
2016-11-01T09:25:13.631Z,740.65
2016-11-01T09:26:13.632Z,740.68
2016-11-01T09:27:13.619Z,740.76
2016-11-01T09:28:13.598Z,740.64
2016-11-01T09:29:13.597Z,740.79
2016-11-01T09:30:13.574Z,740.77
2016-11-01T09:31:13.574Z,740.76
2016-11-01T09:32:13.553Z,740.73
2016-11-01T09:33:13.553Z,740.76
2016-11-01T09:34:13.542Z,740.65
2016-11-01T09:35:13.520Z,740.61
2016-11-01T09:36:13.519Z,740.68
2016-11-01T09:37:13.497Z,740.62
2016-11-01T09:38:13.497Z,740.64
2016-11-01T09:39:13.474Z,740.68
2016-11-01T09:40:13.474Z,740.69
2016-11-01T09:41:13.453Z,740.68
2016-11-01T09:42:13.452Z,740.69
2016-11-01T09:43:13.430Z,740.68
2016-11-01T09:44:13.420Z,740.69
2016-11-01T09:45:13.420Z,740.74
2016-11-01T09:46:13.408Z,740.66
2016-11-01T09:47:13.397Z,740.72
2016-11-01T09:48:13.386Z,740.72
2016-11-01T09:49:13.364Z,740.66
2016-11-01T09:50:13.353Z,740.65
2016-11-01T09:51:13.341Z,740.76
2016-11-01T09:52:13.342Z,740.69
2016-11-01T09:53:13.329Z,740.74
2016-11-01T09:54:13.319Z,740.65
2016-11-01T09:55:13.298Z,740.67
2016-11-01T09:56:13.287Z,740.67
2016-11-01T09:57:13.287Z,740.67
2016-11-01T09:58:13.265Z,740.65
2016-11-01T09:59:13.255Z,740.7
2016-11-01T10:00:13.254Z,740.61
2016-11-01T10:01:13.243Z,740.67
2016-11-01T10:02:13.232Z,740.57
2016-11-01T10:03:13.211Z,740.61
2016-11-01T10:04:13.211Z,740.61
2016-11-01T10:05:13.200Z,740.6
2016-11-01T10:06:13.182Z,740.59
2016-11-01T10:07:13.168Z,740.61
2016-11-01T10:08:13.169Z,740.62
2016-11-01T10:09:13.158Z,740.7
2016-11-01T10:10:13.148Z,740.63
2016-11-01T10:11:13.125Z,740.62
2016-11-01T10:12:13.127Z,740.6
2016-11-01T10:13:13.116Z,740.61
2016-11-01T10:14:13.106Z,740.68
2016-11-01T10:15:13.095Z,740.56
2016-11-01T10:16:13.090Z,740.61
2016-11-01T10:17:13.073Z,740.53
2016-11-01T10:18:13.053Z,740.66
2016-11-01T10:19:13.042Z,740.65
2016-11-01T10:20:13.042Z,740.68
2016-11-01T10:21:13.032Z,740.62
2016-11-01T10:22:13.021Z,740.62
2016-11-01T10:23:12.999Z,740.61
2016-11-01T10:24:12.999Z,740.61
2016-11-01T10:25:12.978Z,740.65
2016-11-01T10:26:12.967Z,740.49
2016-11-01T10:27:12.968Z,740.57
2016-11-01T10:28:12.946Z,740.45
2016-11-01T10:29:12.946Z,740.46
2016-11-01T10:30:12.924Z,740.61
2016-11-01T10:31:12.926Z,740.59
2016-11-01T10:32:12.904Z,740.51
2016-11-01T10:33:12.904Z,740.55
2016-11-01T10:34:12.883Z,740.58
2016-11-01T10:35:12.871Z,740.57
2016-11-01T10:36:12.861Z,740.55
2016-11-01T10:37:12.850Z,740.49
2016-11-01T10:38:12.839Z,740.49
2016-11-01T10:39:12.829Z,740.5
2016-11-01T10:40:12.817Z,740.46
2016-11-01T10:41:12.807Z,740.54
2016-11-01T10:42:12.796Z,740.49
2016-11-01T10:43:12.797Z,740.47
2016-11-01T10:44:12.773Z,740.37
2016-11-01T10:45:12.764Z,740.35
2016-11-01T10:46:12.752Z,740.29
2016-11-01T10:47:12.753Z,740.47
2016-11-01T10:48:12.741Z,740.4
2016-11-01T10:49:12.731Z,740.35
2016-11-01T10:50:12.709Z,740.36
2016-11-01T10:51:12.698Z,740.41
2016-11-01T10:52:12.698Z,740.36
2016-11-01T10:53:12.676Z,740.38
2016-11-01T10:54:12.676Z,740.48
2016-11-01T10:55:12.665Z,740.32
2016-11-01T10:56:12.655Z,740.46
2016-11-01T10:57:12.634Z,740.37
2016-11-01T10:58:12.634Z,740.36
2016-11-01T10:59:12.612Z,740.39
2016-11-01T11:00:12.601Z,740.39
2016-11-01T11:01:12.603Z,740.2
2016-11-01T11:02:12.592Z,740.34
2016-11-01T11:03:12.571Z,740.26
2016-11-01T11:04:12.560Z,740.32
2016-11-01T11:05:12.549Z,740.26
2016-11-01T11:06:12.539Z,740.25
2016-11-01T11:07:12.527Z,740.18
2016-11-01T11:08:12.517Z,740.24
2016-11-01T11:09:12.517Z,740.25
2016-11-01T11:10:12.493Z,740.26
2016-11-01T11:11:12.494Z,740.34
2016-11-01T11:12:12.472Z,740.19
2016-11-01T11:13:12.460Z,740.28
2016-11-01T11:14:12.459Z,740.23
2016-11-01T11:15:12.450Z,740.13
2016-11-01T11:16:12.439Z,740.18
2016-11-01T11:17:12.416Z,740.21
2016-11-01T11:18:12.405Z,740.13
2016-11-01T11:19:12.395Z,740.12
2016-11-01T11:20:12.384Z,740.17
2016-11-01T11:21:12.383Z,740.14
2016-11-01T11:22:12.373Z,740.21
2016-11-01T11:23:12.362Z,740.17
2016-11-01T11:24:12.340Z,740.06
2016-11-01T11:25:12.338Z,740.12
2016-11-01T11:26:12.318Z,740.13
2016-11-01T11:27:12.318Z,740.1
2016-11-01T11:28:12.307Z,740.16
2016-11-01T11:29:12.286Z,740.12
2016-11-01T11:30:12.286Z,740.02
2016-11-01T11:31:12.275Z,740.09
2016-11-01T11:32:12.254Z,740.07
2016-11-01T11:33:12.246Z,740.02
2016-11-01T11:34:12.243Z,740.02
2016-11-01T11:35:12.232Z,740.07
2016-11-01T11:36:12.222Z,739.93
2016-11-01T11:37:12.200Z,740.07
2016-11-01T11:38:12.190Z,740.05
2016-11-01T11:39:12.178Z,739.96
2016-11-01T11:40:12.179Z,739.97
2016-11-01T11:41:12.170Z,739.99
2016-11-01T11:42:12.147Z,739.94
2016-11-01T11:43:12.135Z,739.97
2016-11-01T11:44:12.126Z,739.92
2016-11-01T11:45:12.126Z,739.95
2016-11-01T11:46:12.103Z,740
2016-11-01T11:47:12.093Z,739.92
2016-11-01T11:48:12.094Z,739.96
2016-11-01T11:49:12.072Z,739.99
2016-11-01T11:50:12.060Z,740.02
2016-11-01T11:51:12.050Z,739.9
2016-11-01T11:52:12.039Z,739.93
2016-11-01T11:53:12.029Z,739.93
2016-11-01T11:54:12.017Z,739.94
2016-11-01T11:55:12.007Z,739.94
2016-11-01T11:56:12.008Z,739.91
2016-11-01T11:57:11.986Z,739.91
2016-11-01T11:58:11.987Z,739.79
2016-11-01T11:59:11.965Z,739.92
2016-11-01T12:00:11.967Z,739.88
2016-11-01T12:01:11.956Z,739.86
2016-11-01T12:02:11.935Z,739.9
2016-11-01T12:03:11.925Z,739.95
2016-11-01T12:04:11.915Z,739.92
2016-11-01T12:05:11.904Z,739.9
2016-11-01T12:06:11.905Z,739.91
2016-11-01T12:07:11.885Z,739.76
2016-11-01T12:08:11.884Z,739.86
2016-11-01T12:09:11.864Z,739.96
2016-11-01T12:10:11.852Z,739.93
2016-11-01T12:11:11.843Z,739.91
2016-11-01T12:12:11.843Z,739.89
2016-11-01T12:13:11.821Z,739.91
2016-11-01T12:14:11.812Z,739.86
2016-11-01T12:15:11.800Z,739.93
2016-11-01T12:16:11.802Z,739.83
2016-11-01T12:17:11.780Z,739.79
2016-11-01T12:18:11.781Z,739.78
2016-11-01T12:19:11.771Z,739.77
2016-11-01T12:20:11.760Z,739.77
2016-11-01T12:21:11.740Z,739.79
2016-11-01T12:22:11.740Z,739.75
2016-11-01T12:23:11.728Z,739.83
2016-11-01T12:24:11.718Z,739.81
2016-11-01T12:25:11.696Z,739.71
2016-11-01T12:26:11.688Z,739.75
2016-11-01T12:27:11.687Z,739.77
2016-11-01T12:28:11.676Z,739.82
2016-11-01T12:29:11.654Z,739.76
2016-11-01T12:30:11.655Z,739.77